Time;durP1;ratioP1;P1;durP2;ratioP2;P2;SDS_P1;SDS_P2;PMS_P1;PMS_P2;Temp;Humidity;BMP_temperature;BMP_pressure;BME280_temperature;BME280_humidity;BME280_pressure;Samples;Min_cycle;Max_cycle;Signal;HPM_P1;HPM_P2
2023/12/13 00:01:38;;;;;;;;;1.33;0.33;;;;;;;;5083063;27;45381;-69
2023/12/13 00:04:03;;;;;;;;;1.67;1.00;;;;;;;;5085548;27;46568;-69
2023/12/13 00:06:29;;;;;;;;;4.33;1.00;;;;;;;;5093213;27;45842;-70
2023/12/13 00:08:54;;;;;;;;;2.00;1.00;;;;;;;;5098406;27;45374;-71
2023/12/13 00:11:19;;;;;;;;;4.67;1.00;;;;;;;;5096094;27;45522;-68
2023/12/13 00:13:44;;;;;;;;;5.00;0.00;;;;;;;;5089186;27;46486;-69
2023/12/13 00:16:10;;;;;;;;;4.00;1.33;;;;;;;;5094499;27;45195;-68
2023/12/13 00:18:36;;;;;;;;;6.67;1.00;;;;;;;;5087094;27;45286;-69
2023/12/13 00:21:01;;;;;;;;;1.33;1.00;;;;;;;;5093153;27;45453;-69
2023/12/13 00:23:26;;;;;;;;;0.67;0.67;;;;;;;;5092307;27;45798;-69
2023/12/13 00:25:51;;;;;;;;;2.00;0.00;;;;;;;;5091785;27;46841;-71
2023/12/13 00:28:17;;;;;;;;;7.33;0.67;;;;;;;;5083297;27;45490;-69
2023/12/13 00:30:42;;;;;;;;;5.00;1.00;;;;;;;;5086099;27;45195;-70
2023/12/13 00:33:07;;;;;;;;;3.00;0.00;;;;;;;;5093556;27;46700;-69
2023/12/13 00:35:32;;;;;;;;;2.00;2.00;;;;;;;;5083682;27;45299;-69
2023/12/13 00:37:58;;;;;;;;;1.00;0.00;;;;;;;;5094492;27;45365;-70
2023/12/13 00:40:24;;;;;;;;;0.33;0.33;;;;;;;;5091758;27;45586;-69
2023/12/13 00:42:49;;;;;;;;;2.00;0.33;;;;;;;;5096215;27;46660;-71
2023/12/13 00:45:15;;;;;;;;;0.00;0.00;;;;;;;;5085786;27;45347;-71
2023/12/13 00:47:40;;;;;;;;;4.00;1.00;;;;;;;;5092014;27;45381;-73
2023/12/13 00:50:06;;;;;;;;;2.33;1.00;;;;;;;;5095589;27;45468;-69
2023/12/13 00:52:32;;;;;;;;;1.00;1.00;;;;;;;;5090686;27;46521;-69
2023/12/13 00:55:00;;;;;;;;;1.67;1.67;;;;;;;;5087541;27;45243;-69
2023/12/13 00:57:26;;;;;;;;;2.67;0.00;;;;;;;;5094931;27;45405;-71
2023/12/13 00:59:51;;;;;;;;;4.33;1.00;;;;;;;;5093510;27;45587;-71
2023/12/13 01:02:16;;;;;;;;;4.00;1.00;;;;;;;;5091376;27;46196;-70
2023/12/13 01:04:44;;;;;;;;;1.33;1.33;;;;;;;;5085005;27;45407;-71
2023/12/13 01:07:09;;;;;;;;;3.67;0.00;;;;;;;;5093377;27;45447;-69
2023/12/13 01:09:34;;;;;;;;;1.00;0.00;;;;;;;;5092398;27;45457;-69
2023/12/13 01:12:00;;;;;;;;;2.67;1.00;;;;;;;;5087563;27;46765;-71
2023/12/13 01:14:25;;;;;;;;;0.67;0.67;;;;;;;;5090459;27;45427;-69
2023/12/13 01:16:50;;;;;;;;;2.00;1.00;;;;;;;;5090729;27;45571;-68
2023/12/13 01:19:15;;;;;;;;;2.00;0.33;;;;;;;;5089448;27;45390;-70
2023/12/13 01:21:40;;;;;;;;;3.00;1.00;;;;;;;;5084258;27;45406;-69
2023/12/13 01:24:05;;;;;;;;;1.00;1.00;;;;;;;;5087899;27;45410;-69
2023/12/13 01:26:31;;;;;;;;;2.00;0.00;;;;;;;;5082257;27;45490;-70
2023/12/13 01:28:56;;;;;;;;;2.00;0.33;;;;;;;;5084894;27;45404;-69
2023/12/13 01:31:21;;;;;;;;;1.67;1.00;;;;;;;;5083854;27;46028;-69
2023/12/13 01:33:46;;;;;;;;;1.00;1.00;;;;;;;;5092755;27;45494;-69
2023/12/13 01:36:11;;;;;;;;;1.00;1.00;;;;;;;;5089892;27;45287;-72
2023/12/13 01:38:37;;;;;;;;;5.00;0.00;;;;;;;;5092987;27;45661;-71
2023/12/13 01:41:02;;;;;;;;;1.33;0.67;;;;;;;;5083712;27;46124;-69
2023/12/13 01:43:28;;;;;;;;;1.00;1.00;;;;;;;;5092690;27;45449;-69
2023/12/13 01:45:56;;;;;;;;;1.67;1.00;;;;;;;;5093949;27;45444;-70
2023/12/13 01:48:22;;;;;;;;;0.00;0.00;;;;;;;;5095468;27;45565;-72
2023/12/13 01:50:48;;;;;;;;;0.00;0.00;;;;;;;;5096355;27;46130;-71
2023/12/13 01:53:14;;;;;;;;;1.00;1.00;;;;;;;;5096447;27;47012;-72
2023/12/13 01:55:40;;;;;;;;;6.67;1.00;;;;;;;;5094028;27;45385;-69
2023/12/13 01:58:05;;;;;;;;;3.00;1.00;;;;;;;;5084939;27;45443;-69
2023/12/13 02:00:32;;;;;;;;;1.00;1.00;;;;;;;;5085878;27;46693;-72
2023/12/13 02:02:57;;;;;;;;;3.67;1.00;;;;;;;;5086905;27;45408;-69
2023/12/13 02:05:23;;;;;;;;;2.33;1.00;;;;;;;;5094657;27;45261;-70
2023/12/13 02:07:49;;;;;;;;;0.33;0.33;;;;;;;;5088416;27;45455;-69
2023/12/13 02:10:14;;;;;;;;;1.00;1.00;;;;;;;;5089231;27;46819;-69
2023/12/13 02:12:39;;;;;;;;;3.00;1.00;;;;;;;;5095094;27;45406;-71
2023/12/13 02:15:05;;;;;;;;;1.00;1.00;;;;;;;;5091059;27;45332;-70
2023/12/13 02:17:30;;;;;;;;;0.33;0.33;;;;;;;;5090462;27;45364;-73
2023/12/13 02:19:55;;;;;;;;;3.67;0.67;;;;;;;;5096757;27;45528;-69
2023/12/13 02:22:20;;;;;;;;;0.33;0.00;;;;;;;;5087218;27;45475;-72
2023/12/13 02:24:47;;;;;;;;;0.67;0.33;;;;;;;;5088178;27;45392;-71
2023/12/13 02:27:13;;;;;;;;;3.33;0.00;;;;;;;;5095042;27;45632;-69
2023/12/13 02:29:38;;;;;;;;;3.00;0.00;;;;;;;;5085322;27;46027;-71
2023/12/13 02:32:03;;;;;;;;;2.67;0.67;;;;;;;;5081568;27;45429;-69
2023/12/13 02:34:29;;;;;;;;;1.00;1.00;;;;;;;;5091596;27;45588;-69
2023/12/13 02:36:54;;;;;;;;;4.33;0.00;;;;;;;;5083921;27;45458;-72
2023/12/13 02:39:19;;;;;;;;;1.00;0.00;;;;;;;;5085308;27;46091;-69
2023/12/13 02:41:44;;;;;;;;;0.33;0.33;;;;;;;;5082030;27;45440;-70
2023/12/13 02:44:10;;;;;;;;;4.33;0.00;;;;;;;;5095002;27;45593;-69
2023/12/13 02:46:35;;;;;;;;;2.00;0.00;;;;;;;;5091877;27;45303;-70
2023/12/13 02:49:00;;;;;;;;;1.67;1.00;;;;;;;;5085199;27;45461;-71
2023/12/13 02:51:26;;;;;;;;;0.00;0.00;;;;;;;;5093625;27;45301;-72
2023/12/13 02:53:51;;;;;;;;;2.67;1.00;;;;;;;;5094045;27;45449;-71
2023/12/13 02:56:16;;;;;;;;;1.00;1.00;;;;;;;;5085217;27;45370;-69
2023/12/13 02:58:41;;;;;;;;;1.67;1.00;;;;;;;;5079199;27;46965;-69
2023/12/13 03:01:07;;;;;;;;;1.33;0.00;;;;;;;;5087450;27;45443;-69
2023/12/13 03:03:32;;;;;;;;;0.00;0.00;;;;;;;;5090507;27;45374;-70
2023/12/13 03:05:57;;;;;;;;;1.00;1.00;;;;;;;;5091107;27;45647;-69
2023/12/13 03:08:22;;;;;;;;;1.67;0.67;;;;;;;;5093875;27;46431;-69
2023/12/13 03:10:47;;;;;;;;;5.00;1.00;;;;;;;;5091912;27;45575;-70
2023/12/13 03:13:13;;;;;;;;;3.00;1.00;;;;;;;;5096409;27;45817;-69
2023/12/13 03:15:38;;;;;;;;;1.00;1.00;;;;;;;;5088271;27;45258;-69
2023/12/13 03:18:03;;;;;;;;;1.67;0.00;;;;;;;;5088723;27;46731;-73
2023/12/13 03:20:30;;;;;;;;;1.33;0.33;;;;;;;;5091362;27;45239;-69
2023/12/13 03:22:55;;;;;;;;;1.33;0.00;;;;;;;;5087676;27;45315;-69
2023/12/13 03:25:20;;;;;;;;;2.00;1.00;;;;;;;;5088998;27;45641;-69
2023/12/13 03:27:46;;;;;;;;;0.33;0.00;;;;;;;;5089142;27;45822;-69
2023/12/13 03:30:11;;;;;;;;;3.33;0.33;;;;;;;;5081948;27;45430;-69
2023/12/13 03:32:37;;;;;;;;;2.67;1.00;;;;;;;;5085393;27;45499;-69
2023/12/13 03:35:02;;;;;;;;;1.00;1.00;;;;;;;;5091271;27;45556;-70
2023/12/13 03:37:31;;;;;;;;;2.00;1.00;;;;;;;;5080657;27;46637;-69
2023/12/13 03:39:56;;;;;;;;;1.33;0.33;;;;;;;;5094348;27;45468;-71
2023/12/13 03:42:21;;;;;;;;;1.67;1.00;;;;;;;;5088842;27;45577;-69
2023/12/13 03:44:46;;;;;;;;;5.33;1.33;;;;;;;;5098007;27;45437;-69
2023/12/13 03:47:12;;;;;;;;;2.00;1.00;;;;;;;;5090116;27;46941;-71
2023/12/13 03:49:37;;;;;;;;;5.00;1.67;;;;;;;;5089225;27;46122;-69
2023/12/13 03:52:02;;;;;;;;;4.00;1.00;;;;;;;;5099615;27;45282;-73
2023/12/13 03:54:27;;;;;;;;;4.00;1.00;;;;;;;;5092050;27;45456;-70
2023/12/13 03:56:53;;;;;;;;;3.00;1.67;;;;;;;;5091989;27;45921;-72
2023/12/13 03:59:18;;;;;;;;;2.33;0.00;;;;;;;;5089082;27;46391;-69
2023/12/13 04:01:43;;;;;;;;;8.00;2.00;;;;;;;;5089975;27;45346;-69
2023/12/13 04:04:08;;;;;;;;;4.00;0.33;;;;;;;;5085262;27;45490;-68
2023/12/13 04:06:34;;;;;;;;;1.67;1.00;;;;;;;;5094697;27;46999;-68
2023/12/13 04:08:59;;;;;;;;;4.33;1.00;;;;;;;;5095528;27;45383;-69
2023/12/13 04:11:24;;;;;;;;;2.00;1.00;;;;;;;;5082166;27;45195;-71
2023/12/13 04:13:49;;;;;;;;;0.67;0.00;;;;;;;;5081112;27;45585;-68
2023/12/13 04:16:14;;;;;;;;;2.00;0.33;;;;;;;;5099401;27;46565;-69
2023/12/13 04:18:39;;;;;;;;;3.00;1.00;;;;;;;;5094177;27;45371;-69
2023/12/13 04:21:05;;;;;;;;;4.00;1.00;;;;;;;;5097281;27;45484;-71
2023/12/13 04:23:30;;;;;;;;;2.00;1.00;;;;;;;;5088936;27;45394;-71
2023/12/13 04:25:56;;;;;;;;;2.00;1.00;;;;;;;;5093041;27;46459;-69
2023/12/13 04:28:21;;;;;;;;;0.00;0.00;;;;;;;;5090215;27;45498;-69
2023/12/13 04:30:46;;;;;;;;;5.33;1.00;;;;;;;;5091330;27;45446;-69
2023/12/13 04:33:11;;;;;;;;;6.33;1.00;;;;;;;;5090952;27;45220;-72
2023/12/13 04:35:36;;;;;;;;;2.00;1.33;;;;;;;;5091567;27;46286;-69
2023/12/13 04:38:02;;;;;;;;;1.00;1.00;;;;;;;;5096724;27;45211;-72
2023/12/13 04:40:28;;;;;;;;;5.33;2.00;;;;;;;;5081520;27;45573;-69
2023/12/13 04:42:53;;;;;;;;;0.00;0.00;;;;;;;;5087630;27;45391;-69
2023/12/13 04:45:19;;;;;;;;;4.67;1.00;;;;;;;;5086458;27;46159;-69
2023/12/13 04:47:44;;;;;;;;;5.00;0.67;;;;;;;;5089393;27;45379;-69
2023/12/13 04:50:09;;;;;;;;;5.00;2.00;;;;;;;;5084102;27;45341;-69
2023/12/13 04:52:35;;;;;;;;;2.33;0.33;;;;;;;;5085122;27;45331;-70
2023/12/13 04:55:00;;;;;;;;;3.00;1.00;;;;;;;;5081672;27;46368;-70
2023/12/13 04:57:25;;;;;;;;;1.33;0.00;;;;;;;;5079897;27;45295;-69
2023/12/13 04:59:50;;;;;;;;;1.00;1.00;;;;;;;;5082700;27;45475;-71
2023/12/13 05:02:15;;;;;;;;;2.00;0.67;;;;;;;;5093861;27;45651;-69
2023/12/13 05:04:41;;;;;;;;;1.00;1.00;;;;;;;;5084212;27;46660;-69
2023/12/13 05:07:08;;;;;;;;;3.00;0.00;;;;;;;;5091324;27;45479;-69
2023/12/13 05:09:33;;;;;;;;;4.00;1.00;;;;;;;;5090675;27;45315;-70
2023/12/13 05:11:59;;;;;;;;;2.33;0.67;;;;;;;;5094104;27;45571;-69
2023/12/13 05:14:24;;;;;;;;;1.33;0.00;;;;;;;;5086798;27;45865;-71
2023/12/13 05:16:49;;;;;;;;;3.00;0.33;;;;;;;;5089335;27;45432;-70
2023/12/13 05:19:14;;;;;;;;;1.00;1.00;;;;;;;;5088714;27;45451;-70
2023/12/13 05:21:39;;;;;;;;;1.67;0.33;;;;;;;;5093988;27;46305;-72
2023/12/13 05:24:05;;;;;;;;;5.00;1.00;;;;;;;;5084547;27;46529;-72
2023/12/13 05:26:30;;;;;;;;;1.67;0.33;;;;;;;;5091701;27;45428;-70
2023/12/13 05:28:55;;;;;;;;;1.33;0.33;;;;;;;;5078919;27;45521;-72
2023/12/13 05:31:21;;;;;;;;;5.00;2.00;;;;;;;;5084856;27;45218;-71
2023/12/13 05:33:47;;;;;;;;;1.33;0.67;;;;;;;;5092910;27;46060;-69
2023/12/13 05:36:12;;;;;;;;;0.33;0.00;;;;;;;;5080834;27;45431;-68
2023/12/13 05:38:37;;;;;;;;;2.00;1.00;;;;;;;;5095515;27;45400;-69
2023/12/13 05:41:02;;;;;;;;;4.00;0.00;;;;;;;;5090309;27;45284;-72
2023/12/13 05:43:27;;;;;;;;;1.67;0.33;;;;;;;;5095290;27;47616;-71
2023/12/13 05:45:54;;;;;;;;;2.00;1.00;;;;;;;;5092347;27;45331;-70
2023/12/13 05:48:19;;;;;;;;;0.00;0.00;;;;;;;;5092013;27;45343;-69
2023/12/13 05:50:44;;;;;;;;;6.33;2.00;;;;;;;;5093676;27;45454;-69
2023/12/13 05:53:09;;;;;;;;;2.00;1.00;;;;;;;;5084087;27;46367;-69
2023/12/13 05:55:35;;;;;;;;;2.67;1.00;;;;;;;;5086233;27;45396;-70
2023/12/13 05:58:00;;;;;;;;;2.00;1.00;;;;;;;;5082184;27;45615;-71
2023/12/13 06:00:25;;;;;;;;;0.00;0.00;;;;;;;;5089268;27;45452;-70
2023/12/13 06:02:50;;;;;;;;;7.00;0.00;;;;;;;;5222709;22;46006;-70
2023/12/13 06:05:15;;;;;;;;;3.67;1.00;;;;;;;;5096008;27;45333;-68
2023/12/13 06:07:41;;;;;;;;;3.00;1.67;;;;;;;;5092793;27;45530;-69
2023/12/13 06:10:07;;;;;;;;;5.00;1.00;;;;;;;;5095699;27;46627;-70
2023/12/13 06:12:32;;;;;;;;;2.67;1.00;;;;;;;;5095546;27;47861;-69
2023/12/13 06:14:58;;;;;;;;;2.00;0.33;;;;;;;;5089287;27;45342;-70
2023/12/13 06:17:23;;;;;;;;;3.00;1.33;;;;;;;;5093607;27;45386;-68
2023/12/13 06:19:48;;;;;;;;;2.00;1.00;;;;;;;;5095234;27;45471;-69
2023/12/13 06:22:14;;;;;;;;;4.33;1.00;;;;;;;;5091042;27;46860;-68
2023/12/13 06:24:39;;;;;;;;;2.00;1.00;;;;;;;;5084612;27;45345;-69
2023/12/13 06:27:04;;;;;;;;;1.67;1.00;;;;;;;;5094330;27;45532;-67
2023/12/13 06:29:29;;;;;;;;;3.00;2.00;;;;;;;;5091717;27;45382;-68
2023/12/13 06:31:55;;;;;;;;;2.33;1.00;;;;;;;;5092612;27;46880;-68
2023/12/13 06:34:20;;;;;;;;;0.67;0.33;;;;;;;;5095714;27;45241;-68
2023/12/13 06:36:45;;;;;;;;;7.67;1.33;;;;;;;;5095691;27;45528;-70
2023/12/13 06:39:11;;;;;;;;;4.00;1.00;;;;;;;;5097118;27;45317;-71
2023/12/13 06:41:39;;;;;;;;;3.67;1.00;;;;;;;;5091801;27;46184;-67
2023/12/13 06:44:05;;;;;;;;;1.00;1.00;;;;;;;;5092630;27;45401;-68
2023/12/13 06:46:30;;;;;;;;;2.33;1.00;;;;;;;;5094582;27;45804;-69
2023/12/13 06:48:55;;;;;;;;;2.00;0.33;;;;;;;;5096698;27;45434;-69
2023/12/13 06:51:21;;;;;;;;;2.33;1.00;;;;;;;;5096496;27;45430;-68
2023/12/13 06:53:46;;;;;;;;;3.67;1.00;;;;;;;;5096852;27;45156;-67
2023/12/13 06:56:11;;;;;;;;;1.00;0.00;;;;;;;;5093678;27;45293;-69
2023/12/13 06:58:37;;;;;;;;;0.33;0.33;;;;;;;;5089731;27;45891;-68
2023/12/13 07:01:02;;;;;;;;;2.00;2.00;;;;;;;;5095324;27;45629;-70
2023/12/13 07:03:27;;;;;;;;;2.00;0.00;;;;;;;;5095807;27;45529;-68
2023/12/13 07:05:53;;;;;;;;;3.33;1.00;;;;;;;;5094324;27;45559;-68
2023/12/13 07:08:18;;;;;;;;;2.00;0.33;;;;;;;;5097110;27;45393;-68
2023/12/13 07:10:43;;;;;;;;;2.00;1.00;;;;;;;;5090424;27;47143;-70
2023/12/13 07:13:08;;;;;;;;;2.00;1.00;;;;;;;;5093954;27;45466;-69
2023/12/13 07:15:34;;;;;;;;;3.00;1.00;;;;;;;;5097980;27;45409;-69
2023/12/13 07:17:59;;;;;;;;;2.00;0.00;;;;;;;;5089684;27;45455;-69
2023/12/13 07:20:24;;;;;;;;;6.33;2.00;;;;;;;;5090688;27;45559;-69
2023/12/13 07:22:50;;;;;;;;;2.00;1.00;;;;;;;;5094467;27;45543;-73
2023/12/13 07:25:15;;;;;;;;;0.67;0.67;;;;;;;;5093578;27;45609;-69
2023/12/13 07:27:41;;;;;;;;;3.33;2.33;;;;;;;;5091742;27;45358;-68
2023/12/13 07:30:06;;;;;;;;;0.67;0.67;;;;;;;;5090387;27;45658;-68
2023/12/13 07:32:33;;;;;;;;;3.00;1.00;;;;;;;;5091419;27;46438;-68
2023/12/13 07:34:58;;;;;;;;;3.67;1.00;;;;;;;;5092484;27;45759;-69
2023/12/13 07:37:23;;;;;;;;;1.00;1.00;;;;;;;;5091860;27;45560;-68
2023/12/13 07:39:49;;;;;;;;;3.67;0.33;;;;;;;;5088579;27;46340;-67
2023/12/13 07:42:14;;;;;;;;;1.67;1.00;;;;;;;;5093049;27;45898;-68
2023/12/13 07:44:39;;;;;;;;;0.67;0.67;;;;;;;;5097795;27;45388;-68
2023/12/13 07:47:05;;;;;;;;;1.33;0.67;;;;;;;;5095392;27;45446;-68
2023/12/13 07:49:30;;;;;;;;;1.00;1.00;;;;;;;;5091203;27;45659;-68
2023/12/13 07:51:55;;;;;;;;;1.33;1.00;;;;;;;;5086197;27;45597;-68
2023/12/13 07:54:22;;;;;;;;;4.00;1.00;;;;;;;;5093580;27;45619;-68
2023/12/13 07:56:49;;;;;;;;;2.00;2.00;;;;;;;;5095257;27;47060;-70
2023/12/13 07:59:14;;;;;;;;;1.33;0.67;;;;;;;;5095572;27;45664;-68
2023/12/13 08:01:39;;;;;;;;;4.67;0.00;;;;;;;;5095206;27;45506;-70
2023/12/13 08:04:05;;;;;;;;;3.00;0.67;;;;;;;;5089878;27;45565;-68
2023/12/13 08:06:30;;;;;;;;;2.00;1.00;;;;;;;;5093521;27;45514;-68
2023/12/13 08:08:56;;;;;;;;;1.00;1.00;;;;;;;;5093537;27;45724;-67
2023/12/13 08:11:21;;;;;;;;;0.33;0.33;;;;;;;;5088680;27;45473;-71
2023/12/13 08:13:46;;;;;;;;;4.00;1.00;;;;;;;;5085782;27;45831;-68
2023/12/13 08:16:11;;;;;;;;;1.00;1.00;;;;;;;;5092957;27;45582;-68
2023/12/13 08:18:40;;;;;;;;;2.00;1.00;;;;;;;;5090398;27;46861;-68
2023/12/13 08:21:06;;;;;;;;;2.00;1.00;;;;;;;;5092854;27;45601;-68
2023/12/13 08:23:32;;;;;;;;;3.67;1.00;;;;;;;;5092383;27;45438;-68
2023/12/13 08:25:57;;;;;;;;;1.00;1.00;;;;;;;;5091165;27;45651;-69
2023/12/13 08:28:22;;;;;;;;;8.33;2.00;;;;;;;;5087432;27;45823;-68
2023/12/13 08:30:47;;;;;;;;;2.67;1.00;;;;;;;;5090630;27;45405;-70
2023/12/13 08:33:12;;;;;;;;;0.00;0.00;;;;;;;;5092531;27;46240;-68
2023/12/13 08:35:38;;;;;;;;;3.00;0.00;;;;;;;;5089866;27;45559;-70
2023/12/13 08:38:03;;;;;;;;;3.00;1.00;;;;;;;;5089733;27;46699;-68
2023/12/13 08:40:29;;;;;;;;;0.00;0.00;;;;;;;;5092865;27;45638;-68
2023/12/13 08:42:54;;;;;;;;;0.00;0.00;;;;;;;;5093588;27;45539;-68
2023/12/13 08:45:19;;;;;;;;;0.33;0.33;;;;;;;;5096593;27;45457;-70
2023/12/13 08:47:44;;;;;;;;;1.33;1.00;;;;;;;;5088984;27;46022;-68
2023/12/13 08:50:09;;;;;;;;;0.67;0.00;;;;;;;;5085363;27;46013;-68
2023/12/13 08:52:35;;;;;;;;;0.00;0.00;;;;;;;;5088051;27;45317;-68
2023/12/13 08:55:00;;;;;;;;;0.33;0.33;;;;;;;;5095642;27;45531;-69
2023/12/13 08:57:25;;;;;;;;;1.33;0.00;;;;;;;;5086480;27;46572;-68
2023/12/13 08:59:50;;;;;;;;;2.00;0.00;;;;;;;;5093548;27;45430;-68
2023/12/13 09:02:15;;;;;;;;;0.00;0.00;;;;;;;;5092203;27;45648;-67
2023/12/13 09:04:41;;;;;;;;;0.00;0.00;;;;;;;;5090856;27;45745;-68
2023/12/13 09:07:06;;;;;;;;;1.00;1.00;;;;;;;;5092184;27;45625;-71
2023/12/13 09:09:31;;;;;;;;;3.33;2.00;;;;;;;;5090481;27;45335;-68
2023/12/13 09:11:59;;;;;;;;;0.00;0.00;;;;;;;;5082704;27;45493;-68
2023/12/13 09:14:25;;;;;;;;;0.00;0.00;;;;;;;;5090512;27;45590;-68
2023/12/13 09:16:50;;;;;;;;;1.00;0.00;;;;;;;;5084242;27;46685;-69
2023/12/13 09:19:16;;;;;;;;;2.33;1.00;;;;;;;;5094694;27;45436;-71
2023/12/13 09:21:41;;;;;;;;;0.00;0.00;;;;;;;;5089915;27;45155;-68
2023/12/13 09:24:07;;;;;;;;;4.00;1.00;;;;;;;;5086518;27;45396;-68
2023/12/13 09:26:32;;;;;;;;;0.67;0.67;;;;;;;;5091277;27;45817;-68
2023/12/13 09:28:58;;;;;;;;;0.00;0.00;;;;;;;;5095001;27;45555;-68
2023/12/13 09:31:24;;;;;;;;;2.00;1.00;;;;;;;;5094490;27;45427;-67
2023/12/13 09:33:50;;;;;;;;;2.67;1.00;;;;;;;;5089648;27;45561;-69
2023/12/13 09:36:17;;;;;;;;;1.67;0.00;;;;;;;;5086021;27;47603;-67
2023/12/13 09:38:42;;;;;;;;;3.33;1.00;;;;;;;;5089905;27;45384;-69
2023/12/13 09:41:07;;;;;;;;;0.00;0.00;;;;;;;;5095190;27;45485;-67
2023/12/13 09:43:34;;;;;;;;;1.33;0.00;;;;;;;;5088768;27;45741;-68
2023/12/13 09:45:59;;;;;;;;;1.00;1.00;;;;;;;;5094980;27;46414;-70
2023/12/13 09:48:25;;;;;;;;;0.33;0.00;;;;;;;;5088038;27;45412;-68
2023/12/13 09:50:51;;;;;;;;;4.67;0.67;;;;;;;;5089621;27;45403;-67
2023/12/13 09:53:17;;;;;;;;;0.00;0.00;;;;;;;;5095055;27;45234;-68
2023/12/13 09:55:43;;;;;;;;;0.00;0.00;;;;;;;;5088753;27;46766;-71
2023/12/13 09:58:08;;;;;;;;;0.67;0.00;;;;;;;;5088668;27;45535;-67
2023/12/13 10:00:33;;;;;;;;;0.33;0.33;;;;;;;;5090716;27;45413;-68
2023/12/13 10:02:58;;;;;;;;;2.00;1.00;;;;;;;;5092750;27;45674;-67
2023/12/13 10:05:25;;;;;;;;;2.00;1.00;;;;;;;;5091120;27;46528;-68
2023/12/13 10:07:56;;;;;;;;;0.67;0.00;;;;;;;;5093155;27;45558;-68
2023/12/13 10:10:21;;;;;;;;;0.00;0.00;;;;;;;;5087570;27;45553;-71
2023/12/13 10:12:50;;;;;;;;;0.67;0.67;;;;;;;;5085210;27;45465;-70
2023/12/13 10:15:15;;;;;;;;;0.00;0.00;;;;;;;;5087156;27;45777;-68
2023/12/13 10:17:40;;;;;;;;;1.00;1.00;;;;;;;;5090104;27;45618;-68
2023/12/13 10:20:06;;;;;;;;;2.67;1.00;;;;;;;;5086170;27;45475;-69
2023/12/13 10:22:32;;;;;;;;;4.00;1.00;;;;;;;;5071467;27;45661;-68
2023/12/13 10:24:58;;;;;;;;;1.00;1.00;;;;;;;;5083313;27;46854;-68
2023/12/13 10:27:23;;;;;;;;;0.67;0.67;;;;;;;;5088945;27;45875;-68
2023/12/13 10:29:49;;;;;;;;;2.00;0.67;;;;;;;;5094392;27;45517;-71
2023/12/13 10:32:14;;;;;;;;;2.00;0.00;;;;;;;;5092313;27;45436;-68
2023/12/13 10:34:40;;;;;;;;;1.67;1.00;;;;;;;;5090457;27;45524;-69
2023/12/13 10:37:06;;;;;;;;;2.00;0.33;;;;;;;;5093669;27;45437;-71
2023/12/13 10:39:31;;;;;;;;;0.33;0.33;;;;;;;;5095091;27;45444;-68
2023/12/13 10:41:57;;;;;;;;;2.00;1.00;;;;;;;;5090657;27;45481;-68
2023/12/13 10:44:23;;;;;;;;;3.67;0.33;;;;;;;;5088948;27;46108;-70
2023/12/13 10:46:56;;;;;;;;;2.33;1.00;;;;;;;;5091657;27;45530;-67
2023/12/13 10:49:21;;;;;;;;;2.00;0.33;;;;;;;;5099294;27;45261;-70
2023/12/13 10:51:47;;;;;;;;;4.00;0.67;;;;;;;;5094837;27;45495;-70
2023/12/13 10:54:13;;;;;;;;;1.00;1.00;;;;;;;;5100092;27;45793;-68
2023/12/13 10:56:39;;;;;;;;;3.00;1.33;;;;;;;;5099626;27;45433;-68
2023/12/13 10:59:04;;;;;;;;;1.00;1.00;;;;;;;;5099598;27;45634;-68
2023/12/13 11:01:30;;;;;;;;;1.67;1.00;;;;;;;;5088649;27;45452;-69
2023/12/13 11:04:04;;;;;;;;;1.00;1.00;;;;;;;;5083776;27;45455;-71
2023/12/13 11:06:30;;;;;;;;;3.00;1.67;;;;;;;;5083373;27;45366;-73
2023/12/13 11:08:55;;;;;;;;;1.00;1.00;;;;;;;;5096872;27;45368;-70
2023/12/13 11:11:26;;;;;;;;;2.00;2.00;;;;;;;;5089092;27;45647;-70
2023/12/13 11:13:55;;;;;;;;;3.00;1.00;;;;;;;;5093415;27;46895;-69
2023/12/13 11:16:20;;;;;;;;;4.00;1.00;;;;;;;;5093057;27;45408;-71
2023/12/13 11:18:46;;;;;;;;;2.00;2.00;;;;;;;;5096293;27;45501;-71
2023/12/13 11:21:20;;;;;;;;;1.00;1.00;;;;;;;;5093863;27;45428;-71
2023/12/13 11:23:47;;;;;;;;;2.00;2.00;;;;;;;;5088170;27;45835;-72
2023/12/13 11:26:13;;;;;;;;;3.33;2.00;;;;;;;;5091537;27;45460;-73
2023/12/13 11:28:38;;;;;;;;;3.00;2.00;;;;;;;;5092564;27;45449;-74
2023/12/13 11:31:08;;;;;;;;;2.00;2.00;;;;;;;;5095673;27;45480;-71
2023/12/13 11:33:36;;;;;;;;;3.00;2.00;;;;;;;;5095359;27;45836;-71
2023/12/13 11:36:09;;;;;;;;;2.00;2.00;;;;;;;;5089473;27;45526;-70
2023/12/13 11:38:34;;;;;;;;;3.00;3.00;;;;;;;;5088856;27;45469;-72
2023/12/13 11:40:59;;;;;;;;;3.00;2.00;;;;;;;;5091673;27;45475;-72
2023/12/13 11:43:25;;;;;;;;;3.00;2.00;;;;;;;;5094700;27;45606;-70
2023/12/13 11:45:50;;;;;;;;;3.00;1.67;;;;;;;;5090754;27;46234;-71
2023/12/13 11:48:15;;;;;;;;;4.00;2.00;;;;;;;;5088985;27;45459;-71
2023/12/13 11:50:41;;;;;;;;;5.00;3.67;;;;;;;;5090758;27;45511;-72
2023/12/13 11:53:09;;;;;;;;;2.33;2.33;;;;;;;;5093904;27;45913;-72
2023/12/13 11:55:36;;;;;;;;;3.00;3.00;;;;;;;;5091969;27;45398;-71
2023/12/13 11:58:03;;;;;;;;;3.00;3.00;;;;;;;;5092332;27;45468;-69
2023/12/13 12:00:28;;;;;;;;;5.33;3.00;;;;;;;;5095745;27;45572;-71
2023/12/13 12:02:54;;;;;;;;;4.00;2.00;;;;;;;;5095741;27;46672;-71
2023/12/13 12:05:20;;;;;;;;;2.00;2.00;;;;;;;;5091369;27;46421;-72
2023/12/13 12:07:54;;;;;;;;;3.00;3.00;;;;;;;;5089447;27;45432;-70
2023/12/13 12:10:19;;;;;;;;;3.33;2.00;;;;;;;;5090596;27;45341;-71
2023/12/13 12:12:48;;;;;;;;;5.33;2.00;;;;;;;;5091806;27;45899;-71
2023/12/13 12:15:15;;;;;;;;;1.67;1.67;;;;;;;;5096230;27;46176;-71
2023/12/13 12:17:41;;;;;;;;;3.67;2.00;;;;;;;;5088483;27;45447;-69
2023/12/13 12:20:06;;;;;;;;;2.00;2.00;;;;;;;;5094840;27;45871;-72
2023/12/13 12:22:34;;;;;;;;;4.33;4.00;;;;;;;;5094202;27;45800;-72
2023/12/13 12:25:00;;;;;;;;;2.33;2.33;;;;;;;;5092321;27;45562;-72
2023/12/13 12:27:26;;;;;;;;;4.00;3.00;;;;;;;;5092888;27;45421;-70
2023/12/13 12:29:51;;;;;;;;;6.00;3.67;;;;;;;;5088419;27;45497;-70
2023/12/13 12:32:17;;;;;;;;;5.67;3.00;;;;;;;;5091087;27;46033;-72
2023/12/13 12:34:46;;;;;;;;;5.00;4.00;;;;;;;;5092534;27;45471;-70
2023/12/13 12:37:12;;;;;;;;;4.67;4.00;;;;;;;;5088160;27;45469;-69
2023/12/13 12:39:37;;;;;;;;;4.00;3.33;;;;;;;;5095210;27;45424;-69
2023/12/13 12:42:03;;;;;;;;;7.00;4.00;;;;;;;;5091003;27;46069;-70
2023/12/13 12:44:28;;;;;;;;;7.00;5.67;;;;;;;;5085394;27;45448;-70
2023/12/13 12:46:53;;;;;;;;;5.00;4.00;;;;;;;;5090445;27;45491;-70
2023/12/13 12:49:19;;;;;;;;;5.00;3.00;;;;;;;;5088134;27;45607;-70
2023/12/13 12:51:44;;;;;;;;;10.00;5.00;;;;;;;;5092705;27;45516;-69
2023/12/13 12:54:09;;;;;;;;;6.33;6.33;;;;;;;;5088185;27;46286;-73
2023/12/13 12:56:36;;;;;;;;;6.00;6.00;;;;;;;;5092798;27;45587;-71
2023/12/13 12:59:01;;;;;;;;;8.67;4.00;;;;;;;;5090697;27;45476;-68
2023/12/13 13:01:27;;;;;;;;;8.00;5.00;;;;;;;;5090528;27;46517;-68
2023/12/13 13:03:52;;;;;;;;;8.00;6.00;;;;;;;;5089038;27;45671;-68
2023/12/13 13:06:18;;;;;;;;;8.33;6.67;;;;;;;;5085142;27;46217;-69
2023/12/13 13:08:43;;;;;;;;;5.00;5.00;;;;;;;;5085875;27;45614;-68
2023/12/13 13:11:09;;;;;;;;;8.33;5.00;;;;;;;;5088872;27;46355;-68
2023/12/13 13:13:34;;;;;;;;;4.00;4.00;;;;;;;;5088153;27;45395;-68
2023/12/13 13:15:59;;;;;;;;;5.00;4.33;;;;;;;;5091269;27;45431;-70
2023/12/13 13:18:24;;;;;;;;;5.33;4.00;;;;;;;;5093324;27;45409;-69
2023/12/13 13:20:50;;;;;;;;;4.67;4.00;;;;;;;;5094041;27;45757;-71
2023/12/13 13:23:15;;;;;;;;;6.00;4.00;;;;;;;;5088651;27;45491;-70
2023/12/13 13:25:40;;;;;;;;;3.00;3.00;;;;;;;;5090439;27;45427;-69
2023/12/13 13:28:06;;;;;;;;;3.67;2.00;;;;;;;;5091268;27;45703;-69
2023/12/13 13:30:32;;;;;;;;;3.00;3.00;;;;;;;;5088131;27;46463;-70
2023/12/13 13:32:57;;;;;;;;;3.00;3.00;;;;;;;;5091658;27;46067;-69
2023/12/13 13:35:24;;;;;;;;;2.33;2.33;;;;;;;;5091280;27;45332;-72
2023/12/13 13:37:49;;;;;;;;;3.00;3.00;;;;;;;;5094654;27;45531;-69
2023/12/13 13:40:15;;;;;;;;;2.00;2.00;;;;;;;;5095259;27;45790;-73
2023/12/13 13:42:40;;;;;;;;;3.67;3.67;;;;;;;;5091095;27;45511;-69
2023/12/13 13:45:06;;;;;;;;;4.00;3.00;;;;;;;;5093309;27;45642;-72
2023/12/13 13:47:31;;;;;;;;;2.33;2.33;;;;;;;;5095915;27;45606;-69
2023/12/13 13:49:56;;;;;;;;;4.67;3.00;;;;;;;;5094523;27;46133;-70
2023/12/13 13:52:22;;;;;;;;;4.00;4.00;;;;;;;;5091511;27;45610;-70
2023/12/13 13:54:47;;;;;;;;;4.00;3.00;;;;;;;;5096201;27;45420;-69
2023/12/13 13:57:12;;;;;;;;;6.00;3.67;;;;;;;;5092274;27;45520;-71
2023/12/13 13:59:38;;;;;;;;;10.67;5.67;;;;;;;;5091526;27;46658;-69
2023/12/13 14:02:03;;;;;;;;;9.33;4.33;;;;;;;;5089832;27;45479;-69
2023/12/13 14:04:28;;;;;;;;;4.33;4.33;;;;;;;;5093080;27;45470;-72
2023/12/13 14:06:53;;;;;;;;;6.67;6.00;;;;;;;;5089019;27;45493;-73
2023/12/13 14:09:19;;;;;;;;;7.00;5.00;;;;;;;;5086888;27;45839;-71
2023/12/13 14:11:44;;;;;;;;;10.00;5.67;;;;;;;;5091456;27;45450;-70
2023/12/13 14:14:11;;;;;;;;;6.67;3.67;;;;;;;;5086680;27;45383;-72
2023/12/13 14:16:36;;;;;;;;;9.00;5.67;;;;;;;;5093715;27;45441;-69
2023/12/13 14:19:05;;;;;;;;;5.33;5.33;;;;;;;;5087516;27;45666;-69
2023/12/13 14:21:30;;;;;;;;;7.33;5.33;;;;;;;;5093936;27;45495;-69
2023/12/13 14:23:55;;;;;;;;;4.00;4.00;;;;;;;;5081725;27;46411;-70
2023/12/13 14:26:21;;;;;;;;;6.67;4.67;;;;;;;;5080923;27;45499;-70
2023/12/13 14:28:46;;;;;;;;;9.00;4.00;;;;;;;;5085084;27;45840;-69
2023/12/13 14:31:11;;;;;;;;;3.33;3.33;;;;;;;;5096490;27;45547;-70
2023/12/13 14:33:37;;;;;;;;;5.67;5.00;;;;;;;;5090041;27;45272;-70